sensor_id;sensor_type;location;lat;lon;timestamp;temperature;humidity
20208;DHT22;10263;48.716;8.760;2023-11-21T00:01:05;6.30;99.90
20208;DHT22;10263;48.716;8.760;2023-11-21T00:03:34;6.40;99.90
20208;DHT22;10263;48.716;8.760;2023-11-21T00:06:02;6.40;99.90
20208;DHT22;10263;48.716;8.760;2023-11-21T00:08:30;6.40;99.90
20208;DHT22;10263;48.716;8.760;2023-11-21T00:10:57;6.50;99.90
20208;DHT22;10263;48.716;8.760;2023-11-21T00:13:23;6.50;99.90
20208;DHT22;10263;48.716;8.760;2023-11-21T00:15:50;6.50;99.90
20208;DHT22;10263;48.716;8.760;2023-11-21T00:18:17;6.50;99.90
20208;DHT22;10263;48.716;8.760;2023-11-21T00:20:44;6.50;99.90
20208;DHT22;10263;48.716;8.760;2023-11-21T00:23:12;6.50;99.90
20208;DHT22;10263;48.716;8.760;2023-11-21T00:25:38;6.50;99.90
20208;DHT22;10263;48.716;8.760;2023-11-21T00:33:00;6.60;99.90
20208;DHT22;10263;48.716;8.760;2023-11-21T00:35:27;6.60;99.90
20208;DHT22;10263;48.716;8.760;2023-11-21T00:37:53;6.60;99.90
20208;DHT22;10263;48.716;8.760;2023-11-21T00:40:21;6.70;99.90
20208;DHT22;10263;48.716;8.760;2023-11-21T00:45:15;6.70;99.90
20208;DHT22;10263;48.716;8.760;2023-11-21T00:47:42;7.40;99.90
20208;DHT22;10263;48.716;8.760;2023-11-21T00:52:37;6.70;99.90
20208;DHT22;10263;48.716;8.760;2023-11-21T00:55:04;6.70;99.90
20208;DHT22;10263;48.716;8.760;2023-11-21T00:57:34;6.70;99.90
20208;DHT22;10263;48.716;8.760;2023-11-21T01:00:01;6.80;99.90
20208;DHT22;10263;48.716;8.760;2023-11-21T01:05:01;6.70;99.90
20208;DHT22;10263;48.716;8.760;2023-11-21T01:14:51;6.80;99.90
20208;DHT22;10263;48.716;8.760;2023-11-21T01:17:18;6.80;99.90
20208;DHT22;10263;48.716;8.760;2023-11-21T01:19:48;6.80;99.90
20208;DHT22;10263;48.716;8.760;2023-11-21T01:22:15;6.80;99.90
20208;DHT22;10263;48.716;8.760;2023-11-21T01:24:42;6.80;99.90
20208;DHT22;10263;48.716;8.760;2023-11-21T01:27:10;6.80;99.90
20208;DHT22;10263;48.716;8.760;2023-11-21T01:29:37;6.80;99.90
20208;DHT22;10263;48.716;8.760;2023-11-21T01:32:06;6.90;99.90
20208;DHT22;10263;48.716;8.760;2023-11-21T01:34:33;6.80;99.90
20208;DHT22;10263;48.716;8.760;2023-11-21T01:37:00;6.80;99.90
20208;DHT22;10263;48.716;8.760;2023-11-21T01:39:27;6.90;99.90
20208;DHT22;10263;48.716;8.760;2023-11-21T01:41:54;6.80;99.90
20208;DHT22;10263;48.716;8.760;2023-11-21T01:44:21;6.80;99.90
20208;DHT22;10263;48.716;8.760;2023-11-21T01:46:48;6.90;99.90
20208;DHT22;10263;48.716;8.760;2023-11-21T01:49:16;7.00;99.90
20208;DHT22;10263;48.716;8.760;2023-11-21T01:51:45;6.80;99.90
20208;DHT22;10263;48.716;8.760;2023-11-21T01:54:14;6.80;99.90
20208;DHT22;10263;48.716;8.760;2023-11-21T01:59:10;6.80;99.90
20208;DHT22;10263;48.716;8.760;2023-11-21T02:04:06;6.80;99.90
20208;DHT22;10263;48.716;8.760;2023-11-21T02:06:36;6.90;99.90
20208;DHT22;10263;48.716;8.760;2023-11-21T02:09:04;6.90;99.90
20208;DHT22;10263;48.716;8.760;2023-11-21T02:11:32;6.90;99.90
20208;DHT22;10263;48.716;8.760;2023-11-21T02:14:01;6.90;99.90
20208;DHT22;10263;48.716;8.760;2023-11-21T02:16:28;6.90;99.90
20208;DHT22;10263;48.716;8.760;2023-11-21T02:18:57;6.80;99.90
20208;DHT22;10263;48.716;8.760;2023-11-21T02:21:25;6.90;99.90
20208;DHT22;10263;48.716;8.760;2023-11-21T02:23:53;6.80;99.90
20208;DHT22;10263;48.716;8.760;2023-11-21T02:26:20;6.90;99.90
20208;DHT22;10263;48.716;8.760;2023-11-21T02:31:14;6.90;99.90
20208;DHT22;10263;48.716;8.760;2023-11-21T02:33:41;6.90;99.90
20208;DHT22;10263;48.716;8.760;2023-11-21T02:36:09;6.90;99.90
20208;DHT22;10263;48.716;8.760;2023-11-21T02:38:36;6.90;99.90
20208;DHT22;10263;48.716;8.760;2023-11-21T02:41:04;6.80;99.90
20208;DHT22;10263;48.716;8.760;2023-11-21T02:48:26;6.70;99.90
20208;DHT22;10263;48.716;8.760;2023-11-21T02:53:20;6.80;99.90
20208;DHT22;10263;48.716;8.760;2023-11-21T02:55:47;6.80;99.90
20208;DHT22;10263;48.716;8.760;2023-11-21T02:58:15;6.80;99.90
20208;DHT22;10263;48.716;8.760;2023-11-21T03:00:42;6.80;99.90
20208;DHT22;10263;48.716;8.760;2023-11-21T03:03:09;6.60;99.90
20208;DHT22;10263;48.716;8.760;2023-11-21T03:05:36;6.70;99.90
20208;DHT22;10263;48.716;8.760;2023-11-21T03:08:04;6.70;99.90
20208;DHT22;10263;48.716;8.760;2023-11-21T03:10:30;6.70;99.90
20208;DHT22;10263;48.716;8.760;2023-11-21T03:12:57;6.70;99.90
20208;DHT22;10263;48.716;8.760;2023-11-21T03:15:25;6.70;99.90
20208;DHT22;10263;48.716;8.760;2023-11-21T03:17:52;6.60;99.90
20208;DHT22;10263;48.716;8.760;2023-11-21T03:22:46;6.60;99.90
20208;DHT22;10263;48.716;8.760;2023-11-21T03:25:15;6.60;99.90
20208;DHT22;10263;48.716;8.760;2023-11-21T03:27:42;6.70;99.90
20208;DHT22;10263;48.716;8.760;2023-11-21T03:30:10;6.60;99.90
20208;DHT22;10263;48.716;8.760;2023-11-21T03:32:39;6.60;99.90
20208;DHT22;10263;48.716;8.760;2023-11-21T03:35:06;6.60;99.90
20208;DHT22;10263;48.716;8.760;2023-11-21T03:37:33;6.70;99.90
20208;DHT22;10263;48.716;8.760;2023-11-21T03:40:00;6.60;99.90
20208;DHT22;10263;48.716;8.760;2023-11-21T03:42:29;6.70;99.90
20208;DHT22;10263;48.716;8.760;2023-11-21T03:44:56;6.70;99.90
20208;DHT22;10263;48.716;8.760;2023-11-21T03:49:51;6.60;99.90
20208;DHT22;10263;48.716;8.760;2023-11-21T03:52:18;6.70;99.90
20208;DHT22;10263;48.716;8.760;2023-11-21T03:54:45;6.60;99.90
20208;DHT22;10263;48.716;8.760;2023-11-21T03:57:12;6.70;99.90
20208;DHT22;10263;48.716;8.760;2023-11-21T03:59:40;6.60;99.90
20208;DHT22;10263;48.716;8.760;2023-11-21T04:02:07;6.60;99.90
20208;DHT22;10263;48.716;8.760;2023-11-21T04:07:03;6.60;99.90
20208;DHT22;10263;48.716;8.760;2023-11-21T04:09:30;6.70;99.90
20208;DHT22;10263;48.716;8.760;2023-11-21T04:16:51;6.80;99.90
20208;DHT22;10263;48.716;8.760;2023-11-21T04:19:19;6.70;99.90
20208;DHT22;10263;48.716;8.760;2023-11-21T04:21:46;6.60;99.90
20208;DHT22;10263;48.716;8.760;2023-11-21T04:24:14;6.60;99.90
20208;DHT22;10263;48.716;8.760;2023-11-21T04:26:41;6.60;99.90
20208;DHT22;10263;48.716;8.760;2023-11-21T04:31:35;6.70;99.90
20208;DHT22;10263;48.716;8.760;2023-11-21T04:34:02;6.70;99.90
20208;DHT22;10263;48.716;8.760;2023-11-21T04:36:29;6.70;99.90
20208;DHT22;10263;48.716;8.760;2023-11-21T04:38:57;6.80;99.90
20208;DHT22;10263;48.716;8.760;2023-11-21T04:41:25;6.80;99.90
20208;DHT22;10263;48.716;8.760;2023-11-21T04:43:52;6.80;99.90
20208;DHT22;10263;48.716;8.760;2023-11-21T04:46:18;6.80;99.90
20208;DHT22;10263;48.716;8.760;2023-11-21T04:53:39;6.70;99.90
20208;DHT22;10263;48.716;8.760;2023-11-21T04:56:07;6.70;99.90
20208;DHT22;10263;48.716;8.760;2023-11-21T04:58:35;6.80;99.90
20208;DHT22;10263;48.716;8.760;2023-11-21T05:01:02;6.80;99.90
20208;DHT22;10263;48.716;8.760;2023-11-21T05:03:28;6.80;99.90
20208;DHT22;10263;48.716;8.760;2023-11-21T05:05:56;6.80;99.90
20208;DHT22;10263;48.716;8.760;2023-11-21T05:08:23;6.70;99.90
20208;DHT22;10263;48.716;8.760;2023-11-21T05:10:49;6.90;99.90
20208;DHT22;10263;48.716;8.760;2023-11-21T05:13:17;6.80;99.90
20208;DHT22;10263;48.716;8.760;2023-11-21T05:15:45;6.80;99.90
20208;DHT22;10263;48.716;8.760;2023-11-21T05:18:12;6.80;99.90
20208;DHT22;10263;48.716;8.760;2023-11-21T05:23:08;6.90;99.90
20208;DHT22;10263;48.716;8.760;2023-11-21T05:25:34;6.90;99.90
20208;DHT22;10263;48.716;8.760;2023-11-21T05:28:01;7.00;99.90
20208;DHT22;10263;48.716;8.760;2023-11-21T05:30:29;5.50;99.90
20208;DHT22;10263;48.716;8.760;2023-11-21T05:32:57;7.00;99.90
20208;DHT22;10263;48.716;8.760;2023-11-21T05:35:24;6.90;99.90
20208;DHT22;10263;48.716;8.760;2023-11-21T05:45:14;6.90;99.90
20208;DHT22;10263;48.716;8.760;2023-11-21T05:47:43;7.60;99.90
20208;DHT22;10263;48.716;8.760;2023-11-21T05:50:13;6.90;99.90
20208;DHT22;10263;48.716;8.760;2023-11-21T05:52:41;6.90;99.90
20208;DHT22;10263;48.716;8.760;2023-11-21T05:55:09;6.90;99.90
20208;DHT22;10263;48.716;8.760;2023-11-21T05:57:36;6.90;99.90
20208;DHT22;10263;48.716;8.760;2023-11-21T06:00:04;6.90;99.90
20208;DHT22;10263;48.716;8.760;2023-11-21T06:02:37;6.80;99.90
20208;DHT22;10263;48.716;8.760;2023-11-21T06:05:05;6.90;99.90
20208;DHT22;10263;48.716;8.760;2023-11-21T06:07:33;6.90;99.90
20208;DHT22;10263;48.716;8.760;2023-11-21T06:10:01;6.90;99.90
20208;DHT22;10263;48.716;8.760;2023-11-21T06:12:28;6.90;99.90
20208;DHT22;10263;48.716;8.760;2023-11-21T06:14:55;6.90;99.90
20208;DHT22;10263;48.716;8.760;2023-11-21T06:17:22;6.90;99.90
20208;DHT22;10263;48.716;8.760;2023-11-21T06:19:50;6.90;99.90
20208;DHT22;10263;48.716;8.760;2023-11-21T06:22:18;6.90;99.90
20208;DHT22;10263;48.716;8.760;2023-11-21T06:24:46;6.90;99.90
20208;DHT22;10263;48.716;8.760;2023-11-21T06:29:41;6.80;99.90
20208;DHT22;10263;48.716;8.760;2023-11-21T06:32:08;6.90;99.90
20208;DHT22;10263;48.716;8.760;2023-11-21T06:37:02;6.90;99.90
20208;DHT22;10263;48.716;8.760;2023-11-21T06:39:29;6.90;99.90
20208;DHT22;10263;48.716;8.760;2023-11-21T06:41:57;7.00;99.90
20208;DHT22;10263;48.716;8.760;2023-11-21T06:44:25;6.90;99.90
20208;DHT22;10263;48.716;8.760;2023-11-21T06:46:52;6.90;99.90
20208;DHT22;10263;48.716;8.760;2023-11-21T06:49:19;6.90;99.90
20208;DHT22;10263;48.716;8.760;2023-11-21T06:54:13;6.90;99.90
20208;DHT22;10263;48.716;8.760;2023-11-21T06:56:40;6.90;99.90
20208;DHT22;10263;48.716;8.760;2023-11-21T06:59:08;6.90;99.90
20208;DHT22;10263;48.716;8.760;2023-11-21T07:04:05;6.80;99.90
20208;DHT22;10263;48.716;8.760;2023-11-21T07:08:59;7.00;99.90
20208;DHT22;10263;48.716;8.760;2023-11-21T07:11:26;6.90;99.90
20208;DHT22;10263;48.716;8.760;2023-11-21T07:13:53;7.00;99.90
20208;DHT22;10263;48.716;8.760;2023-11-21T07:16:21;7.00;99.90
20208;DHT22;10263;48.716;8.760;2023-11-21T07:18:49;7.00;99.90
20208;DHT22;10263;48.716;8.760;2023-11-21T07:23:43;7.00;99.90
20208;DHT22;10263;48.716;8.760;2023-11-21T07:28:37;7.00;99.90
20208;DHT22;10263;48.716;8.760;2023-11-21T07:31:05;7.10;99.90
20208;DHT22;10263;48.716;8.760;2023-11-21T07:33:33;7.10;99.90
20208;DHT22;10263;48.716;8.760;2023-11-21T07:36:00;7.20;99.90
20208;DHT22;10263;48.716;8.760;2023-11-21T07:40:54;7.20;99.90
20208;DHT22;10263;48.716;8.760;2023-11-21T07:43:21;7.30;99.90
20208;DHT22;10263;48.716;8.760;2023-11-21T07:45:48;7.20;99.90
20208;DHT22;10263;48.716;8.760;2023-11-21T07:48:14;7.20;99.90
20208;DHT22;10263;48.716;8.760;2023-11-21T07:50:43;7.30;99.90
20208;DHT22;10263;48.716;8.760;2023-11-21T07:53:09;7.30;99.90
20208;DHT22;10263;48.716;8.760;2023-11-21T07:55:36;7.40;99.90
20208;DHT22;10263;48.716;8.760;2023-11-21T07:58:03;7.40;99.90
20208;DHT22;10263;48.716;8.760;2023-11-21T08:02:57;7.30;99.90
20208;DHT22;10263;48.716;8.760;2023-11-21T08:05:24;7.30;99.90
20208;DHT22;10263;48.716;8.760;2023-11-21T08:07:52;7.40;99.90
20208;DHT22;10263;48.716;8.760;2023-11-21T08:12:47;7.50;99.90
20208;DHT22;10263;48.716;8.760;2023-11-21T08:17:43;7.60;99.90
20208;DHT22;10263;48.716;8.760;2023-11-21T08:20:11;7.60;99.90
20208;DHT22;10263;48.716;8.760;2023-11-21T08:25:10;7.80;99.90
20208;DHT22;10263;48.716;8.760;2023-11-21T08:30:06;8.00;99.90
20208;DHT22;10263;48.716;8.760;2023-11-21T08:35:01;8.20;99.90
20208;DHT22;10263;48.716;8.760;2023-11-21T08:39:58;8.30;99.90
20208;DHT22;10263;48.716;8.760;2023-11-21T08:42:27;8.30;99.90
20208;DHT22;10263;48.716;8.760;2023-11-21T08:44:55;8.30;99.90
20208;DHT22;10263;48.716;8.760;2023-11-21T08:47:23;8.50;99.90
20208;DHT22;10263;48.716;8.760;2023-11-21T08:49:51;8.50;99.90
20208;DHT22;10263;48.716;8.760;2023-11-21T08:54:46;8.40;99.90
20208;DHT22;10263;48.716;8.760;2023-11-21T08:57:13;8.40;99.90
20208;DHT22;10263;48.716;8.760;2023-11-21T08:59:42;8.30;99.90
20208;DHT22;10263;48.716;8.760;2023-11-21T09:04:36;8.20;99.90
20208;DHT22;10263;48.716;8.760;2023-11-21T09:07:03;8.30;99.90
20208;DHT22;10263;48.716;8.760;2023-11-21T09:09:30;8.30;99.90
20208;DHT22;10263;48.716;8.760;2023-11-21T09:11:57;8.30;99.90
20208;DHT22;10263;48.716;8.760;2023-11-21T09:16:54;8.30;99.90
20208;DHT22;10263;48.716;8.760;2023-11-21T09:24:16;8.30;99.90
20208;DHT22;10263;48.716;8.760;2023-11-21T09:26:44;8.30;99.90
20208;DHT22;10263;48.716;8.760;2023-11-21T09:29:11;8.40;99.90
20208;DHT22;10263;48.716;8.760;2023-11-21T09:31:37;8.50;99.90
20208;DHT22;10263;48.716;8.760;2023-11-21T09:34:06;8.50;99.90
20208;DHT22;10263;48.716;8.760;2023-11-21T09:36:33;8.50;99.90
20208;DHT22;10263;48.716;8.760;2023-11-21T09:39:00;8.40;99.90
20208;DHT22;10263;48.716;8.760;2023-11-21T09:41:32;8.40;99.90
20208;DHT22;10263;48.716;8.760;2023-11-21T09:44:02;8.30;99.90
20208;DHT22;10263;48.716;8.760;2023-11-21T09:46:33;8.40;99.90
20208;DHT22;10263;48.716;8.760;2023-11-21T09:49:00;8.40;99.90
20208;DHT22;10263;48.716;8.760;2023-11-21T09:51:32;8.60;99.90
20208;DHT22;10263;48.716;8.760;2023-11-21T09:54:04;8.40;99.90
20208;DHT22;10263;48.716;8.760;2023-11-21T09:56:34;8.40;99.90
20208;DHT22;10263;48.716;8.760;2023-11-21T09:59:01;8.40;99.90
20208;DHT22;10263;48.716;8.760;2023-11-21T10:01:33;8.50;99.90
20208;DHT22;10263;48.716;8.760;2023-11-21T10:04:03;8.40;99.90
20208;DHT22;10263;48.716;8.760;2023-11-21T10:06:32;8.50;99.90
20208;DHT22;10263;48.716;8.760;2023-11-21T10:09:00;8.50;99.90
20208;DHT22;10263;48.716;8.760;2023-11-21T10:11:29;8.50;99.90
20208;DHT22;10263;48.716;8.760;2023-11-21T10:13:59;8.60;99.90
20208;DHT22;10263;48.716;8.760;2023-11-21T10:16:26;8.60;99.90
20208;DHT22;10263;48.716;8.760;2023-11-21T10:21:21;8.60;99.90
20208;DHT22;10263;48.716;8.760;2023-11-21T10:23:51;9.70;99.90
20208;DHT22;10263;48.716;8.760;2023-11-21T10:26:20;8.80;99.90
20208;DHT22;10263;48.716;8.760;2023-11-21T10:28:56;8.90;99.90
20208;DHT22;10263;48.716;8.760;2023-11-21T10:36:28;8.80;99.90
20208;DHT22;10263;48.716;8.760;2023-11-21T10:38:56;8.70;99.90
20208;DHT22;10263;48.716;8.760;2023-11-21T10:43:53;8.70;99.90
20208;DHT22;10263;48.716;8.760;2023-11-21T10:46:21;8.90;99.90
20208;DHT22;10263;48.716;8.760;2023-11-21T10:48:52;9.00;99.90
20208;DHT22;10263;48.716;8.760;2023-11-21T10:51:20;9.20;99.90
20208;DHT22;10263;48.716;8.760;2023-11-21T10:53:47;9.40;99.90
20208;DHT22;10263;48.716;8.760;2023-11-21T10:56:18;9.70;99.90
20208;DHT22;10263;48.716;8.760;2023-11-21T10:58:48;9.80;99.90
20208;DHT22;10263;48.716;8.760;2023-11-21T11:01:17;10.00;99.90
20208;DHT22;10263;48.716;8.760;2023-11-21T11:03:47;9.80;99.90
20208;DHT22;10263;48.716;8.760;2023-11-21T11:06:14;9.60;99.90
20208;DHT22;10263;48.716;8.760;2023-11-21T11:08:42;9.40;99.90
20208;DHT22;10263;48.716;8.760;2023-11-21T11:11:09;9.40;99.90
20208;DHT22;10263;48.716;8.760;2023-11-21T11:13:43;9.40;99.90
20208;DHT22;10263;48.716;8.760;2023-11-21T11:16:11;9.40;99.90
20208;DHT22;10263;48.716;8.760;2023-11-21T11:18:42;9.70;99.90
20208;DHT22;10263;48.716;8.760;2023-11-21T11:21:19;9.40;99.90
20208;DHT22;10263;48.716;8.760;2023-11-21T11:23:59;9.50;99.90
20208;DHT22;10263;48.716;8.760;2023-11-21T11:26:39;9.70;99.90
20208;DHT22;10263;48.716;8.760;2023-11-21T11:29:17;9.70;99.90
20208;DHT22;10263;48.716;8.760;2023-11-21T11:31:53;9.90;99.90
20208;DHT22;10263;48.716;8.760;2023-11-21T11:34:29;10.00;99.90
20208;DHT22;10263;48.716;8.760;2023-11-21T11:37:00;9.90;99.90
20208;DHT22;10263;48.716;8.760;2023-11-21T11:39:30;9.90;99.90
20208;DHT22;10263;48.716;8.760;2023-11-21T11:41:57;9.80;99.90
20208;DHT22;10263;48.716;8.760;2023-11-21T11:44:49;9.80;99.90
20208;DHT22;10263;48.716;8.760;2023-11-21T11:47:21;10.00;99.90
20208;DHT22;10263;48.716;8.760;2023-11-21T11:50:02;10.00;99.90
20208;DHT22;10263;48.716;8.760;2023-11-21T11:52:34;10.20;99.90
20208;DHT22;10263;48.716;8.760;2023-11-21T11:55:01;10.10;99.90
20208;DHT22;10263;48.716;8.760;2023-11-21T11:57:30;10.20;99.90
20208;DHT22;10263;48.716;8.760;2023-11-21T12:00:16;11.30;99.90
20208;DHT22;10263;48.716;8.760;2023-11-21T12:02:48;10.30;99.90
20208;DHT22;10263;48.716;8.760;2023-11-21T12:05:16;10.30;99.90
20208;DHT22;10263;48.716;8.760;2023-11-21T12:07:45;10.20;99.90
20208;DHT22;10263;48.716;8.760;2023-11-21T12:10:13;10.20;99.90
20208;DHT22;10263;48.716;8.760;2023-11-21T12:12:44;10.20;99.90
20208;DHT22;10263;48.716;8.760;2023-11-21T12:15:13;10.10;99.90
20208;DHT22;10263;48.716;8.760;2023-11-21T12:17:41;10.00;99.90
20208;DHT22;10263;48.716;8.760;2023-11-21T12:20:10;9.90;99.90
20208;DHT22;10263;48.716;8.760;2023-11-21T12:22:45;9.90;99.90
20208;DHT22;10263;48.716;8.760;2023-11-21T12:25:15;9.90;99.90
20208;DHT22;10263;48.716;8.760;2023-11-21T12:27:44;9.80;99.90
20208;DHT22;10263;48.716;8.760;2023-11-21T12:30:13;9.70;99.90
20208;DHT22;10263;48.716;8.760;2023-11-21T12:35:09;9.60;99.90
20208;DHT22;10263;48.716;8.760;2023-11-21T12:40:05;9.70;99.90
20208;DHT22;10263;48.716;8.760;2023-11-21T12:42:32;9.60;99.90
20208;DHT22;10263;48.716;8.760;2023-11-21T12:45:18;9.60;99.90
20208;DHT22;10263;48.716;8.760;2023-11-21T12:47:48;9.50;99.90
20208;DHT22;10263;48.716;8.760;2023-11-21T12:50:15;9.40;99.90
20208;DHT22;10263;48.716;8.760;2023-11-21T12:55:16;9.30;99.90
20208;DHT22;10263;48.716;8.760;2023-11-21T12:57:44;9.30;99.90
20208;DHT22;10263;48.716;8.760;2023-11-21T13:00:13;9.10;99.90
20208;DHT22;10263;48.716;8.760;2023-11-21T13:02:54;9.10;99.90
20208;DHT22;10263;48.716;8.760;2023-11-21T13:05:26;9.10;99.90
20208;DHT22;10263;48.716;8.760;2023-11-21T13:07:54;9.00;99.90
20208;DHT22;10263;48.716;8.760;2023-11-21T13:10:23;9.00;99.90
20208;DHT22;10263;48.716;8.760;2023-11-21T13:12:51;9.00;99.90
20208;DHT22;10263;48.716;8.760;2023-11-21T13:15:20;9.10;99.90
20208;DHT22;10263;48.716;8.760;2023-11-21T13:17:47;9.10;99.90
20208;DHT22;10263;48.716;8.760;2023-11-21T13:20:16;9.00;99.90
20208;DHT22;10263;48.716;8.760;2023-11-21T13:22:49;9.10;99.90
20208;DHT22;10263;48.716;8.760;2023-11-21T13:27:45;9.40;99.90
20208;DHT22;10263;48.716;8.760;2023-11-21T13:30:13;9.30;99.90
20208;DHT22;10263;48.716;8.760;2023-11-21T13:32:43;9.30;99.90
20208;DHT22;10263;48.716;8.760;2023-11-21T13:35:10;9.30;99.90
20208;DHT22;10263;48.716;8.760;2023-11-21T13:37:49;9.20;99.90
20208;DHT22;10263;48.716;8.760;2023-11-21T13:40:20;9.20;99.90
20208;DHT22;10263;48.716;8.760;2023-11-21T13:42:52;9.10;99.90
20208;DHT22;10263;48.716;8.760;2023-11-21T13:45:25;8.90;99.90
20208;DHT22;10263;48.716;8.760;2023-11-21T13:47:54;8.80;99.90
20208;DHT22;10263;48.716;8.760;2023-11-21T13:50:24;8.70;99.90
20208;DHT22;10263;48.716;8.760;2023-11-21T13:52:56;8.50;99.90
20208;DHT22;10263;48.716;8.760;2023-11-21T13:55:23;8.50;99.90
20208;DHT22;10263;48.716;8.760;2023-11-21T13:57:51;8.50;99.90
20208;DHT22;10263;48.716;8.760;2023-11-21T14:00:18;8.40;99.90
20208;DHT22;10263;48.716;8.760;2023-11-21T14:03:02;8.50;99.90
20208;DHT22;10263;48.716;8.760;2023-11-21T14:05:34;8.50;99.90
20208;DHT22;10263;48.716;8.760;2023-11-21T14:08:02;8.50;99.90
20208;DHT22;10263;48.716;8.760;2023-11-21T14:15:33;8.40;99.90
20208;DHT22;10263;48.716;8.760;2023-11-21T14:18:04;8.40;99.90
20208;DHT22;10263;48.716;8.760;2023-11-21T14:23:05;8.50;99.90
20208;DHT22;10263;48.716;8.760;2023-11-21T14:32:57;8.30;99.90
20208;DHT22;10263;48.716;8.760;2023-11-21T14:35:24;8.30;99.90
20208;DHT22;10263;48.716;8.760;2023-11-21T14:40:20;8.40;99.90
20208;DHT22;10263;48.716;8.760;2023-11-21T14:42:50;8.50;99.90
20208;DHT22;10263;48.716;8.760;2023-11-21T14:45:19;8.50;99.90
20208;DHT22;10263;48.716;8.760;2023-11-21T14:47:46;8.50;99.90
20208;DHT22;10263;48.716;8.760;2023-11-21T14:50:20;8.40;99.90
20208;DHT22;10263;48.716;8.760;2023-11-21T14:53:12;8.30;99.90
20208;DHT22;10263;48.716;8.760;2023-11-21T14:55:41;8.30;99.90
20208;DHT22;10263;48.716;8.760;2023-11-21T14:58:20;8.20;99.90
20208;DHT22;10263;48.716;8.760;2023-11-21T15:00:53;8.20;99.90
20208;DHT22;10263;48.716;8.760;2023-11-21T15:03:24;9.50;99.90
20208;DHT22;10263;48.716;8.760;2023-11-21T15:06:09;8.00;99.90
20208;DHT22;10263;48.716;8.760;2023-11-21T15:08:52;7.80;99.90
20208;DHT22;10263;48.716;8.760;2023-11-21T15:11:24;7.80;99.90
20208;DHT22;10263;48.716;8.760;2023-11-21T15:13:56;7.70;99.90
20208;DHT22;10263;48.716;8.760;2023-11-21T15:16:22;7.70;99.90
20208;DHT22;10263;48.716;8.760;2023-11-21T15:21:20;7.70;99.90
20208;DHT22;10263;48.716;8.760;2023-11-21T15:23:47;9.10;99.90
20208;DHT22;10263;48.716;8.760;2023-11-21T15:28:43;7.70;99.90
20208;DHT22;10263;48.716;8.760;2023-11-21T15:31:10;7.60;99.90
20208;DHT22;10263;48.716;8.760;2023-11-21T15:36:05;7.60;99.90
20208;DHT22;10263;48.716;8.760;2023-11-21T15:38:35;7.60;99.90
20208;DHT22;10263;48.716;8.760;2023-11-21T15:41:02;7.60;99.90
20208;DHT22;10263;48.716;8.760;2023-11-21T15:45:59;7.60;99.90
20208;DHT22;10263;48.716;8.760;2023-11-21T15:50:56;7.50;99.90
20208;DHT22;10263;48.716;8.760;2023-11-21T15:53:23;7.60;99.90
20208;DHT22;10263;48.716;8.760;2023-11-21T15:55:50;7.50;99.90
20208;DHT22;10263;48.716;8.760;2023-11-21T16:00:44;7.50;99.90
20208;DHT22;10263;48.716;8.760;2023-11-21T16:03:12;7.40;99.90
20208;DHT22;10263;48.716;8.760;2023-11-21T16:08:07;7.40;99.90
20208;DHT22;10263;48.716;8.760;2023-11-21T16:13:02;7.50;99.90
20208;DHT22;10263;48.716;8.760;2023-11-21T16:20:24;7.50;99.90
20208;DHT22;10263;48.716;8.760;2023-11-21T16:32:41;7.50;99.90
20208;DHT22;10263;48.716;8.760;2023-11-21T16:35:08;7.50;99.90
20208;DHT22;10263;48.716;8.760;2023-11-21T16:37:36;7.50;99.90
20208;DHT22;10263;48.716;8.760;2023-11-21T16:40:04;7.50;99.90
20208;DHT22;10263;48.716;8.760;2023-11-21T16:42:32;7.50;99.90
20208;DHT22;10263;48.716;8.760;2023-11-21T16:45:00;7.40;99.90
20208;DHT22;10263;48.716;8.760;2023-11-21T16:49:54;7.50;99.90
20208;DHT22;10263;48.716;8.760;2023-11-21T16:52:21;7.50;99.90
20208;DHT22;10263;48.716;8.760;2023-11-21T16:54:50;7.40;99.90
20208;DHT22;10263;48.716;8.760;2023-11-21T16:57:17;7.40;99.90
20208;DHT22;10263;48.716;8.760;2023-11-21T17:02:16;7.40;99.90
20208;DHT22;10263;48.716;8.760;2023-11-21T17:07:14;7.40;99.90
20208;DHT22;10263;48.716;8.760;2023-11-21T17:09:41;7.30;99.90
20208;DHT22;10263;48.716;8.760;2023-11-21T17:12:09;7.20;99.90
20208;DHT22;10263;48.716;8.760;2023-11-21T17:14:36;7.20;99.90
20208;DHT22;10263;48.716;8.760;2023-11-21T17:17:05;7.10;99.90
20208;DHT22;10263;48.716;8.760;2023-11-21T17:19:34;7.20;99.90
20208;DHT22;10263;48.716;8.760;2023-11-21T17:22:01;7.10;99.90
20208;DHT22;10263;48.716;8.760;2023-11-21T17:26:55;7.10;99.90
20208;DHT22;10263;48.716;8.760;2023-11-21T17:29:23;7.10;99.90
20208;DHT22;10263;48.716;8.760;2023-11-21T17:31:51;7.10;99.90
20208;DHT22;10263;48.716;8.760;2023-11-21T17:34:18;7.20;99.90
20208;DHT22;10263;48.716;8.760;2023-11-21T17:39:13;7.10;99.90
20208;DHT22;10263;48.716;8.760;2023-11-21T17:41:40;7.00;99.90
20208;DHT22;10263;48.716;8.760;2023-11-21T17:44:07;7.00;99.90
20208;DHT22;10263;48.716;8.760;2023-11-21T17:46:35;6.90;99.90
20208;DHT22;10263;48.716;8.760;2023-11-21T17:49:02;6.90;99.90
20208;DHT22;10263;48.716;8.760;2023-11-21T17:56:27;6.80;99.90
20208;DHT22;10263;48.716;8.760;2023-11-21T17:58:54;6.80;99.90
20208;DHT22;10263;48.716;8.760;2023-11-21T18:01:22;6.80;99.90
20208;DHT22;10263;48.716;8.760;2023-11-21T18:03:50;6.80;99.90
20208;DHT22;10263;48.716;8.760;2023-11-21T18:06:17;6.80;99.90
20208;DHT22;10263;48.716;8.760;2023-11-21T18:08:44;6.90;99.90
20208;DHT22;10263;48.716;8.760;2023-11-21T18:11:11;6.90;99.90
20208;DHT22;10263;48.716;8.760;2023-11-21T18:13:37;7.00;99.90
20208;DHT22;10263;48.716;8.760;2023-11-21T18:16:05;7.00;99.90
20208;DHT22;10263;48.716;8.760;2023-11-21T18:18:32;7.00;99.90
20208;DHT22;10263;48.716;8.760;2023-11-21T18:21:02;7.00;99.90
20208;DHT22;10263;48.716;8.760;2023-11-21T18:28:23;7.00;99.90
20208;DHT22;10263;48.716;8.760;2023-11-21T18:33:16;7.00;99.90
20208;DHT22;10263;48.716;8.760;2023-11-21T18:38:14;7.00;99.90
20208;DHT22;10263;48.716;8.760;2023-11-21T18:40:41;6.90;99.90
20208;DHT22;10263;48.716;8.760;2023-11-21T18:48:03;7.00;99.90
20208;DHT22;10263;48.716;8.760;2023-11-21T18:50:30;7.10;99.90
20208;DHT22;10263;48.716;8.760;2023-11-21T18:52:56;7.10;99.90
20208;DHT22;10263;48.716;8.760;2023-11-21T18:55:26;7.10;99.90
20208;DHT22;10263;48.716;8.760;2023-11-21T18:57:53;7.10;99.90
20208;DHT22;10263;48.716;8.760;2023-11-21T19:00:20;7.10;99.90
20208;DHT22;10263;48.716;8.760;2023-11-21T19:02:47;7.10;99.90
20208;DHT22;10263;48.716;8.760;2023-11-21T19:10:09;7.10;99.90
20208;DHT22;10263;48.716;8.760;2023-11-21T19:12:37;7.10;99.90
20208;DHT22;10263;48.716;8.760;2023-11-21T19:15:06;7.10;99.90
20208;DHT22;10263;48.716;8.760;2023-11-21T19:17:34;7.10;99.90
20208;DHT22;10263;48.716;8.760;2023-11-21T19:20:01;7.10;99.90
20208;DHT22;10263;48.716;8.760;2023-11-21T19:27:22;7.10;99.90
20208;DHT22;10263;48.716;8.760;2023-11-21T19:29:50;7.10;99.90
20208;DHT22;10263;48.716;8.760;2023-11-21T19:39:39;7.10;99.90
20208;DHT22;10263;48.716;8.760;2023-11-21T19:44:33;7.00;99.90
20208;DHT22;10263;48.716;8.760;2023-11-21T19:47:03;7.00;99.90
20208;DHT22;10263;48.716;8.760;2023-11-21T19:49:30;6.90;99.90